Matlacha, Florida
Current Conditions -  °F | °C
As of 12:41 PM on Wednesday 26 Nov 2014 (Local Time) from KFMY Reporting Station
Overcast Overcast  
Wind Chill: 17°   Ceiling: 12000
Heat Index: 17°   Visibility: 10mi
Dew Point: 13°   Wind: 10mph
Humidity: 78%   Direction: 10°N
Pressure: 30.12"   Gusts: 18mph
Location:  26.6904°N, 82.0304°W
Report Text: KFMY 261741Z 01009G16KT 10SM SCT017 SCT023 OVC120 17/13 A3012 RMK AO2 T01720133
Loading
Personal Weather Stations






























Interactive Weather Map New forecast layout! Learn more

10-Day Weather Forecast

Advertisements
Track Severe Weather on mobile